createdAt,value
2023-03-27T00:02:26.397Z,0.00
2023-03-27T00:07:26.252Z,0.00
2023-03-27T00:12:26.155Z,0.00
2023-03-27T00:17:26.132Z,0.00
2023-03-27T00:22:27.089Z,0.00
2023-03-27T00:27:26.007Z,0.00
2023-03-27T00:32:26.033Z,0.00
2023-03-27T00:37:25.937Z,0.00
2023-03-27T00:42:25.874Z,0.00
2023-03-27T00:47:25.866Z,0.00
2023-03-27T00:52:25.773Z,0.00
2023-03-27T00:57:25.857Z,0.00
2023-03-27T01:02:25.880Z,0.00
2023-03-27T01:07:25.737Z,0.00
2023-03-27T01:12:25.669Z,0.00
2023-03-27T01:17:25.626Z,0.00
2023-03-27T01:22:25.454Z,0.00
2023-03-27T01:27:25.395Z,0.00
2023-03-27T01:32:25.373Z,0.00
2023-03-27T01:37:25.264Z,0.00
2023-03-27T01:42:25.398Z,0.00
2023-03-27T01:47:25.230Z,0.00
2023-03-27T01:52:25.157Z,0.00
2023-03-27T01:57:25.091Z,0.00
2023-03-27T02:02:25.148Z,0.00
2023-03-27T02:07:24.989Z,0.00
2023-03-27T02:12:25.070Z,0.00
2023-03-27T02:17:34.869Z,0.00
2023-03-27T02:22:38.209Z,0.00
2023-03-27T02:27:25.654Z,0.00
2023-03-27T02:32:24.719Z,0.00
2023-03-27T02:37:24.669Z,0.00
2023-03-27T02:42:25.495Z,0.00
2023-03-27T02:47:24.574Z,0.00
2023-03-27T02:52:24.416Z,0.00
2023-03-27T02:57:25.258Z,0.00
2023-03-27T03:02:24.365Z,0.00
2023-03-27T03:07:24.242Z,0.00
2023-03-27T03:12:24.197Z,0.00
2023-03-27T03:17:24.146Z,0.00
2023-03-27T03:22:24.074Z,0.00
2023-03-27T03:27:24.026Z,0.00
2023-03-27T03:32:24.040Z,0.00
2023-03-27T03:37:23.951Z,0.00
2023-03-27T03:42:24.348Z,0.00
2023-03-27T03:47:23.855Z,0.00
2023-03-27T03:52:23.769Z,0.00
2023-03-27T03:57:23.802Z,0.00
2023-03-27T04:02:23.779Z,0.00
2023-03-27T04:07:23.622Z,0.00
2023-03-27T04:12:23.544Z,0.00
2023-03-27T04:17:23.525Z,0.00
2023-03-27T04:22:23.440Z,0.00
2023-03-27T04:27:23.414Z,0.00
2023-03-27T04:32:23.442Z,0.00
2023-03-27T04:37:24.209Z,0.00
2023-03-27T04:42:23.384Z,0.00
2023-03-27T04:47:23.246Z,0.00
2023-03-27T04:52:23.109Z,0.00
2023-03-27T04:57:23.071Z,0.00
2023-03-27T05:02:23.188Z,0.00
2023-03-27T05:07:22.960Z,0.00
2023-03-27T05:12:23.909Z,0.00
2023-03-27T05:17:23.006Z,0.00
2023-03-27T05:22:22.804Z,0.00
2023-03-27T05:27:22.748Z,0.00
2023-03-27T05:32:22.817Z,0.00
2023-03-27T05:37:22.638Z,0.00
2023-03-27T05:42:22.792Z,0.00
2023-03-27T05:47:22.546Z,0.00
2023-03-27T05:52:22.812Z,0.00
2023-03-27T05:57:23.444Z,0.00
2023-03-27T06:02:22.527Z,0.00
2023-03-27T06:07:22.287Z,0.00
2023-03-27T06:08:35.506Z,85.22
2023-03-27T06:13:35.475Z,83.67
2023-03-27T06:18:35.410Z,83.17
2023-03-27T06:23:35.344Z,82.39
2023-03-27T06:28:35.268Z,82.51
2023-03-27T06:33:35.228Z,82.20
2023-03-27T06:38:35.166Z,82.20
2023-03-27T06:43:35.125Z,81.71
2023-03-27T06:48:35.144Z,80.74
2023-03-27T06:53:37.527Z,81.05
2023-03-27T06:58:34.944Z,80.02
2023-03-27T07:03:34.919Z,79.77
2023-03-27T07:08:34.839Z,78.91
2023-03-27T07:13:34.843Z,78.15
2023-03-27T07:18:34.745Z,77.56
2023-03-27T07:23:34.672Z,76.39
2023-03-27T07:28:35.017Z,74.40
2023-03-27T07:33:34.836Z,74.71
2023-03-27T07:38:34.499Z,72.40
2023-03-27T07:43:34.524Z,71.23
2023-03-27T07:48:34.459Z,70.04
2023-03-27T07:53:34.794Z,69.24
2023-03-27T07:58:34.342Z,68.79
2023-03-27T08:03:34.459Z,68.93
2023-03-27T08:08:34.257Z,69.34
2023-03-27T08:13:34.195Z,69.34
2023-03-27T08:18:34.133Z,69.24
2023-03-27T08:23:34.084Z,70.17
2023-03-27T08:28:33.997Z,71.44
2023-03-27T08:33:33.959Z,70.86
2023-03-27T08:38:33.922Z,70.72
2023-03-27T08:43:33.822Z,69.21
2023-03-27T08:48:33.751Z,65.11
2023-03-27T08:53:33.705Z,65.52
2023-03-27T08:58:33.613Z,65.58
2023-03-27T09:03:33.739Z,66.36
2023-03-27T09:08:33.538Z,67.25
2023-03-27T09:13:33.476Z,66.46
2023-03-27T09:18:33.439Z,65.68
2023-03-27T09:23:33.351Z,65.13
2023-03-27T09:28:33.291Z,63.52
2023-03-27T09:33:33.347Z,63.29
2023-03-27T09:38:33.222Z,59.98
2023-03-27T09:43:33.114Z,60.23
2023-03-27T09:48:33.080Z,59.38
2023-03-27T09:53:41.875Z,60.64
2023-03-27T09:58:32.965Z,60.85
2023-03-27T10:03:32.993Z,59.64
2023-03-27T10:08:32.910Z,60.67
2023-03-27T10:13:32.830Z,62.92
2023-03-27T10:18:32.799Z,63.15
2023-03-27T10:23:32.787Z,62.30
2023-03-27T10:28:32.679Z,61.52
2023-03-27T10:33:32.602Z,58.18
2023-03-27T10:38:32.571Z,57.28
2023-03-27T10:43:32.521Z,58.62
2023-03-27T10:48:32.457Z,57.33
2023-03-27T10:53:32.465Z,53.31
2023-03-27T10:58:32.383Z,53.33
2023-03-27T11:03:32.286Z,54.00
2023-03-27T11:08:33.272Z,53.31
2023-03-27T11:13:32.250Z,52.85
2023-03-27T11:18:32.155Z,48.90
2023-03-27T11:23:32.083Z,51.01
2023-03-27T11:28:32.141Z,52.69
2023-03-27T11:33:32.005Z,54.15
2023-03-27T11:38:31.869Z,67.16
2023-03-27T11:43:31.841Z,74.26
2023-03-27T11:48:31.804Z,76.84
2023-03-27T11:53:31.766Z,80.18
2023-03-27T11:58:31.690Z,79.35
2023-03-27T12:03:31.652Z,76.01
2023-03-27T12:08:31.541Z,74.70
2023-03-27T12:13:40.597Z,68.03
2023-03-27T12:18:36.215Z,60.64
2023-03-27T12:23:31.402Z,61.13
2023-03-27T12:28:31.319Z,61.85
2023-03-27T12:33:31.248Z,64.60
2023-03-27T12:38:31.230Z,65.17
2023-03-27T12:43:31.172Z,64.60
2023-03-27T12:48:31.107Z,62.70
2023-03-27T12:53:31.024Z,62.54
2023-03-27T12:58:31.033Z,60.05
2023-03-27T13:03:31.058Z,56.38
2023-03-27T13:08:30.878Z,53.95
2023-03-27T13:13:30.872Z,54.00
2023-03-27T13:18:30.806Z,62.18
2023-03-27T13:23:30.719Z,66.49
2023-03-27T13:28:30.655Z,67.97
2023-03-27T13:33:30.611Z,70.23
2023-03-27T13:38:30.538Z,72.57
2023-03-27T13:43:30.520Z,73.09
2023-03-27T13:48:30.480Z,78.74
2023-03-27T13:53:30.409Z,81.84
2023-03-27T13:58:30.361Z,81.28
2023-03-27T14:03:30.315Z,77.01
2023-03-27T14:08:30.281Z,78.11
2023-03-27T14:13:30.211Z,74.71
2023-03-27T14:18:30.178Z,74.71
2023-03-27T14:23:30.056Z,70.06
2023-03-27T14:28:29.998Z,64.32
2023-03-27T14:33:29.939Z,66.56
2023-03-27T14:38:29.920Z,65.40
2023-03-27T14:43:29.845Z,64.81
2023-03-27T14:48:29.771Z,64.03
2023-03-27T14:53:29.745Z,64.86
2023-03-27T14:58:29.668Z,65.13
2023-03-27T15:03:29.713Z,66.30
2023-03-27T15:08:32.952Z,65.78
2023-03-27T15:13:29.530Z,65.58
2023-03-27T15:18:29.502Z,64.19
2023-03-27T15:23:29.529Z,67.11
2023-03-27T15:28:29.336Z,69.79
2023-03-27T15:33:29.348Z,66.91
2023-03-27T15:38:29.221Z,67.39
2023-03-27T15:43:29.157Z,66.05
2023-03-27T15:48:29.124Z,64.40
2023-03-27T15:53:29.044Z,59.14
2023-03-27T15:58:29.016Z,59.56
2023-03-27T16:03:29.214Z,58.40
2023-03-27T16:08:28.913Z,59.53
2023-03-27T16:13:28.981Z,58.91
2023-03-27T16:18:28.768Z,59.84
2023-03-27T16:23:28.774Z,58.75
2023-03-27T16:28:28.655Z,60.53
2023-03-27T16:33:37.449Z,60.19
2023-03-27T16:38:28.543Z,60.02
2023-03-27T16:43:28.496Z,61.66
2023-03-27T16:48:28.448Z,60.02
2023-03-27T16:53:28.366Z,57.98
2023-03-27T16:58:28.427Z,58.19
2023-03-27T17:03:28.282Z,58.98
2023-03-27T17:08:28.218Z,59.66
2023-03-27T17:13:28.178Z,59.35
2023-03-27T17:18:28.148Z,58.94
2023-03-27T17:23:28.105Z,58.73
2023-03-27T17:28:28.058Z,61.54
2023-03-27T17:33:27.961Z,63.04
2023-03-27T17:38:27.871Z,65.11
2023-03-27T17:43:27.847Z,65.11
2023-03-27T17:48:27.754Z,67.85
2023-03-27T17:53:27.792Z,68.37
2023-03-27T17:58:27.753Z,69.06
2023-03-27T18:03:27.862Z,68.85
2023-03-27T18:08:27.624Z,70.19
2023-03-27T18:13:27.488Z,69.92
2023-03-27T18:18:27.508Z,69.47
2023-03-27T18:23:27.419Z,70.92
2023-03-27T18:28:28.360Z,71.53
2023-03-27T18:33:27.275Z,72.50
2023-03-27T18:38:27.311Z,75.02
2023-03-27T18:43:27.274Z,74.46
2023-03-27T18:48:27.134Z,74.71
2023-03-27T18:53:27.109Z,75.98
2023-03-27T18:58:27.024Z,76.19
2023-03-27T19:03:27.036Z,75.67
2023-03-27T19:08:27.051Z,76.50
2023-03-27T19:13:26.882Z,77.53
2023-03-27T19:18:26.874Z,76.43
2023-03-27T19:23:27.894Z,76.26
2023-03-27T19:28:26.693Z,76.43
2023-03-27T19:33:26.623Z,76.98
2023-03-27T19:38:26.578Z,78.54
2023-03-27T19:43:26.534Z,77.71
2023-03-27T19:48:26.465Z,77.71
2023-03-27T19:53:27.508Z,76.78
2023-03-27T19:58:26.394Z,77.12
2023-03-27T20:03:26.589Z,77.44
2023-03-27T20:08:27.439Z,78.47
2023-03-27T20:13:26.202Z,77.95
2023-03-27T20:18:26.136Z,78.82
2023-03-27T20:23:26.089Z,79.03
2023-03-27T20:28:26.056Z,78.82
2023-03-27T20:33:25.995Z,78.34
2023-03-27T20:38:25.929Z,77.78
2023-03-27T20:43:25.832Z,79.03
2023-03-27T20:48:25.953Z,78.92
2023-03-27T20:53:25.756Z,78.23
2023-03-27T20:58:25.825Z,79.69
2023-03-27T21:03:25.708Z,79.06
2023-03-27T21:08:25.623Z,79.20
2023-03-27T21:13:25.535Z,78.68
2023-03-27T21:18:25.498Z,78.44
2023-03-27T21:23:25.629Z,79.20
2023-03-27T21:28:25.350Z,79.72
2023-03-27T21:33:25.343Z,79.41
2023-03-27T21:38:25.283Z,79.65
2023-03-27T21:43:25.315Z,80.69
2023-03-27T21:48:25.234Z,80.45
2023-03-27T21:53:25.252Z,79.13
2023-03-27T21:58:25.204Z,79.97
2023-03-27T22:03:25.013Z,80.14
2023-03-27T22:08:24.944Z,79.76
2023-03-27T22:13:24.916Z,80.07
2023-03-27T22:18:24.836Z,80.49
2023-03-27T22:23:24.919Z,80.59
2023-03-27T22:28:24.733Z,79.13
2023-03-27T22:33:24.679Z,79.86
2023-03-27T22:38:24.593Z,79.69
2023-03-27T22:43:24.575Z,80.18
2023-03-27T22:48:24.578Z,79.38
2023-03-27T22:53:24.448Z,80.00
2023-03-27T22:58:24.441Z,80.73
2023-03-27T23:03:24.568Z,81.84
2023-03-27T23:08:24.268Z,81.56
2023-03-27T23:13:24.225Z,81.04
2023-03-27T23:18:24.319Z,81.25
2023-03-27T23:23:24.115Z,81.29
2023-03-27T23:28:24.207Z,81.60
2023-03-27T23:33:24.070Z,80.87
2023-03-27T23:38:24.058Z,81.74
2023-03-27T23:43:23.884Z,81.43
2023-03-27T23:48:23.969Z,81.84
2023-03-27T23:53:23.791Z,82.05
2023-03-27T23:58:23.735Z,81.70
